Pagrindinis puslapis
METAR-TAF:

METAR-TAF

Oro uostai :

Santa Ana del Yacuma, Bolivija

platuma: 13-46S, ilguma: 065-26W, Aukštis: 144 m

Dabartinis oras

Ataskaita buvo paskelbta 1 valandą ir 8 minutes, ne 15:00 UTC
Vėjas 2 kt nuo kintamojo kryptimis
Temperatūra 32°C
Drėgmė 56%
Slėgis 1015 hPa
Matomumas 10 km arba daugiau
Mažai debesys ne aukštis 2500 ft

METAR: SLSA 251500Z VRB02KT 9999 FEW025 32/22 Q1015

Laikas: 12:08 (16:08 UTC)


TAF: trūkstamas

Orai ataskaitas ir orų prognozės (METAR, TAF).

turimą stotys yra geltonos ir raudonos taškus žemėlapyje.

Perkelti pele per norėdami pamatyti stoties vardą.

Tada spustelėkite, norėdami matyti oro stebėjimo ir prognozės.

Norėdami pakeisti žemėlapį: spustelėkite ant žalios mygtukų su juodo kryžiaus žemyn,; žalią mygtuką su brūkšneliu, jei norite nutolinti; arba žalių rodyklių gretimoms žemėlapius.


METAR-TAF: